createdAt,value
2022-08-17T00:02:26.059Z,98.60
2022-08-17T00:04:54.238Z,98.60
2022-08-17T00:07:21.779Z,98.80
2022-08-17T00:09:49.136Z,98.80
2022-08-17T00:12:41.203Z,98.80
2022-08-17T00:15:10.339Z,98.90
2022-08-17T00:17:38.638Z,99.10
2022-08-17T00:20:06.673Z,99.10
2022-08-17T00:22:36.574Z,99.20
2022-08-17T00:25:12.280Z,99.10
2022-08-17T00:27:39.810Z,99.00
2022-08-17T00:30:10.387Z,99.10
2022-08-17T00:33:14.779Z,99.10
2022-08-17T00:35:32.232Z,99.00
2022-08-17T00:37:59.490Z,99.00
2022-08-17T00:40:26.993Z,99.10
2022-08-17T00:43:19.574Z,99.20
2022-08-17T00:45:48.215Z,99.30
2022-08-17T00:48:26.177Z,99.40
2022-08-17T00:51:09.815Z,99.40
2022-08-17T00:53:42.155Z,99.30
2022-08-17T00:56:14.555Z,99.40
2022-08-17T00:58:41.927Z,99.50
2022-08-17T01:01:11.411Z,99.40
2022-08-17T01:03:40.813Z,99.40
2022-08-17T01:06:09.456Z,99.30
2022-08-17T01:08:38.677Z,99.30
2022-08-17T01:11:06.654Z,99.20
2022-08-17T01:13:44.526Z,99.10
2022-08-17T01:16:26.982Z,98.90
2022-08-17T01:18:58.834Z,98.70
2022-08-17T01:21:31.645Z,98.70
2022-08-17T01:23:58.817Z,98.70
2022-08-17T01:26:27.515Z,98.60
2022-08-17T01:28:55.983Z,98.70
2022-08-17T01:31:28.058Z,98.70
2022-08-17T01:33:56.106Z,98.90
2022-08-17T01:36:23.392Z,99.00
2022-08-17T01:38:50.732Z,99.20
2022-08-17T01:41:19.830Z,99.50
2022-08-17T01:43:56.981Z,99.70
2022-08-17T01:46:28.334Z,99.90
2022-08-17T01:48:57.924Z,99.90
2022-08-17T01:51:28.069Z,99.90
2022-08-17T01:53:59.270Z,99.90
2022-08-17T01:56:28.951Z,99.90
2022-08-17T01:58:57.112Z,99.90
2022-08-17T02:01:28.585Z,99.90
2022-08-17T02:04:01.110Z,99.90
2022-08-17T02:06:53.661Z,99.90
2022-08-17T02:09:24.080Z,99.90
2022-08-17T02:11:54.818Z,99.90
2022-08-17T02:14:24.977Z,99.90
2022-08-17T02:16:52.532Z,99.90
2022-08-17T02:19:19.934Z,99.90
2022-08-17T02:21:49.629Z,99.90
2022-08-17T02:24:58.356Z,99.90
2022-08-17T02:27:09.225Z,99.90
2022-08-17T02:29:37.416Z,99.90
2022-08-17T02:32:05.325Z,99.90
2022-08-17T02:34:32.945Z,99.90
2022-08-17T02:37:00.295Z,99.90
2022-08-17T02:39:27.681Z,99.90
2022-08-17T02:42:04.280Z,99.90
2022-08-17T02:44:39.023Z,99.90
2022-08-17T02:47:08.858Z,99.90
2022-08-17T02:49:36.895Z,99.90
2022-08-17T02:52:06.808Z,99.90
2022-08-17T02:54:40.267Z,99.90
2022-08-17T02:57:10.159Z,99.90
2022-08-17T02:59:45.446Z,99.90
2022-08-17T03:02:16.012Z,99.90
2022-08-17T03:04:43.256Z,99.90
2022-08-17T03:07:10.642Z,99.90
2022-08-17T03:09:38.075Z,99.90
2022-08-17T03:12:15.307Z,99.90
2022-08-17T03:14:43.532Z,99.90
2022-08-17T03:17:16.946Z,99.90
2022-08-17T03:19:45.018Z,99.90
2022-08-17T03:22:36.804Z,99.90
2022-08-17T03:24:59.876Z,99.90
2022-08-17T03:27:27.158Z,99.90
2022-08-17T03:29:55.315Z,99.90
2022-08-17T03:32:22.546Z,99.90
2022-08-17T03:34:49.797Z,99.90
2022-08-17T03:37:17.206Z,99.90
2022-08-17T03:39:44.558Z,99.90
2022-08-17T03:42:31.323Z,99.90
2022-08-17T03:45:01.755Z,99.90
2022-08-17T03:47:47.451Z,99.90
2022-08-17T03:50:34.737Z,99.90
2022-08-17T03:53:24.986Z,99.90
2022-08-17T03:56:10.799Z,99.90
2022-08-17T03:58:38.084Z,99.90
2022-08-17T04:01:07.059Z,99.90
2022-08-17T04:03:34.599Z,99.90
2022-08-17T04:06:02.415Z,99.90
2022-08-17T04:08:30.283Z,99.90
2022-08-17T04:10:58.345Z,99.90
2022-08-17T04:13:25.674Z,99.90
2022-08-17T04:15:53.702Z,99.90
2022-08-17T04:18:20.964Z,99.90
2022-08-17T04:20:48.159Z,99.90
2022-08-17T04:23:17.946Z,99.90
2022-08-17T04:25:50.567Z,99.90
2022-08-17T04:28:19.286Z,99.90
2022-08-17T04:30:47.914Z,99.90
2022-08-17T04:33:18.418Z,99.90
2022-08-17T04:35:49.152Z,99.90
2022-08-17T04:38:22.411Z,99.90
2022-08-17T04:41:07.856Z,99.90
2022-08-17T04:43:36.359Z,99.90
2022-08-17T04:46:10.123Z,99.90
2022-08-17T04:48:40.040Z,99.90
2022-08-17T04:51:10.938Z,99.90
2022-08-17T04:53:40.546Z,99.90
2022-08-17T04:56:15.995Z,99.90
2022-08-17T04:58:46.019Z,99.90
2022-08-17T05:01:13.614Z,99.90
2022-08-17T05:03:42.115Z,99.90
2022-08-17T05:06:09.319Z,99.90
2022-08-17T05:08:36.728Z,99.90
2022-08-17T05:11:04.146Z,99.90
2022-08-17T05:13:31.452Z,99.90
2022-08-17T05:16:01.632Z,99.90
2022-08-17T05:18:30.289Z,99.90
2022-08-17T05:20:57.816Z,99.90
2022-08-17T05:23:26.954Z,99.90
2022-08-17T05:26:07.069Z,99.90
2022-08-17T05:28:37.506Z,99.90
2022-08-17T05:31:05.494Z,99.50
2022-08-17T05:33:35.673Z,99.60
2022-08-17T05:36:04.867Z,99.70
2022-08-17T05:38:32.580Z,99.10
2022-08-17T05:41:04.510Z,99.30
2022-08-17T05:43:34.410Z,99.00
2022-08-17T05:46:15.791Z,99.00
2022-08-17T05:49:16.366Z,99.10
2022-08-17T05:51:49.147Z,98.90
2022-08-17T05:54:35.562Z,99.40
2022-08-17T05:57:02.718Z,98.90
2022-08-17T05:59:48.676Z,98.60
2022-08-17T06:02:34.568Z,98.50
2022-08-17T06:05:17.055Z,98.70
2022-08-17T06:07:52.903Z,98.90
2022-08-17T06:10:34.721Z,99.00
2022-08-17T06:13:19.036Z,98.90
2022-08-17T06:16:02.499Z,99.00
2022-08-17T06:18:31.663Z,99.00
2022-08-17T06:21:02.597Z,98.80
2022-08-17T06:23:43.846Z,98.80
2022-08-17T06:26:30.494Z,98.60
2022-08-17T06:29:48.078Z,98.60
2022-08-17T06:32:15.438Z,99.00
2022-08-17T06:34:45.322Z,99.10
2022-08-17T06:37:32.109Z,99.70
2022-08-17T06:40:17.824Z,99.90
2022-08-17T06:43:13.292Z,99.90
2022-08-17T06:45:57.726Z,99.90
2022-08-17T06:48:32.215Z,99.90
2022-08-17T06:51:22.593Z,99.90
2022-08-17T06:54:05.749Z,99.90
2022-08-17T06:57:10.209Z,99.90
2022-08-17T07:00:03.063Z,99.90
2022-08-17T07:03:07.035Z,99.90
2022-08-17T07:05:40.225Z,99.90
2022-08-17T07:08:40.141Z,99.90
2022-08-17T07:11:40.547Z,99.90
2022-08-17T07:14:31.881Z,99.90
2022-08-17T07:17:06.242Z,99.90
2022-08-17T07:19:35.576Z,99.90
2022-08-17T07:22:57.417Z,99.90
2022-08-17T07:25:21.587Z,99.90
2022-08-17T07:27:59.970Z,99.90
2022-08-17T07:30:37.209Z,99.90
2022-08-17T07:33:24.939Z,99.90
2022-08-17T07:35:52.570Z,99.90
2022-08-17T07:38:27.904Z,99.90
2022-08-17T07:40:58.094Z,99.90
2022-08-17T07:43:34.260Z,99.90
2022-08-17T07:46:41.078Z,99.60
2022-08-17T07:49:11.380Z,98.70
2022-08-17T07:51:40.323Z,98.40
2022-08-17T07:54:16.722Z,97.90
2022-08-17T07:57:00.623Z,98.40
2022-08-17T07:59:35.434Z,98.40
2022-08-17T08:02:17.195Z,98.10
2022-08-17T08:05:00.939Z,97.80
2022-08-17T08:07:54.471Z,98.00
2022-08-17T08:10:27.974Z,96.30
2022-08-17T08:13:14.036Z,95.90
2022-08-17T08:15:54.270Z,95.40
2022-08-17T08:18:54.639Z,95.40
2022-08-17T08:21:54.980Z,94.80
2022-08-17T08:24:37.590Z,94.90
2022-08-17T08:27:07.414Z,95.00
2022-08-17T08:30:05.100Z,95.40
2022-08-17T08:32:54.279Z,94.00
2022-08-17T08:35:26.880Z,94.00
2022-08-17T08:38:17.582Z,93.60
2022-08-17T08:41:22.127Z,93.90
2022-08-17T08:44:10.370Z,92.90
2022-08-17T08:46:52.631Z,92.70
2022-08-17T08:50:02.690Z,92.60
2022-08-17T08:52:54.810Z,92.50
2022-08-17T08:55:27.912Z,91.80
2022-08-17T08:58:03.060Z,91.70
2022-08-17T09:00:36.021Z,91.50
2022-08-17T09:03:09.432Z,92.00
2022-08-17T09:05:56.460Z,91.80
2022-08-17T09:08:39.070Z,92.00
2022-08-17T09:11:09.611Z,92.60
2022-08-17T09:14:04.080Z,92.40
2022-08-17T09:17:03.434Z,91.90
2022-08-17T09:19:51.648Z,92.30
2022-08-17T09:22:43.226Z,92.50
2022-08-17T09:25:15.573Z,92.40
2022-08-17T09:27:48.469Z,92.70
2022-08-17T09:30:15.915Z,92.90
2022-08-17T09:32:50.050Z,92.90
2022-08-17T09:35:32.717Z,92.00
2022-08-17T09:38:30.441Z,92.30
2022-08-17T09:41:38.845Z,91.70
2022-08-17T09:44:31.451Z,92.90
2022-08-17T09:47:06.228Z,90.20
2022-08-17T09:49:40.862Z,89.50
2022-08-17T09:52:20.802Z,91.10
2022-08-17T09:54:51.115Z,89.60
2022-08-17T09:57:47.646Z,88.80
2022-08-17T10:00:29.582Z,89.50
2022-08-17T10:02:56.902Z,88.40
2022-08-17T10:05:40.200Z,89.90
2022-08-17T10:08:21.706Z,84.80
2022-08-17T10:11:48.264Z,84.60
2022-08-17T10:14:53.355Z,86.70
2022-08-17T10:17:42.050Z,83.50
2022-08-17T10:20:23.252Z,83.30
2022-08-17T10:23:21.409Z,81.60
2022-08-17T10:26:15.271Z,82.70
2022-08-17T10:28:47.982Z,82.80
2022-08-17T10:31:39.979Z,82.30
2022-08-17T10:34:29.560Z,80.90
2022-08-17T10:37:28.561Z,82.40
2022-08-17T10:40:17.861Z,78.00
2022-08-17T10:42:49.210Z,78.50
2022-08-17T10:45:26.618Z,77.50
2022-08-17T10:48:06.637Z,77.60
2022-08-17T10:50:43.387Z,76.10
2022-08-17T10:53:10.960Z,77.20
2022-08-17T10:55:39.321Z,77.70
2022-08-17T10:58:38.799Z,75.50
2022-08-17T11:01:12.891Z,75.90
2022-08-17T11:03:56.051Z,74.80
2022-08-17T11:06:33.429Z,74.90
2022-08-17T11:09:06.560Z,74.90
2022-08-17T11:11:50.191Z,74.40
2022-08-17T11:14:28.820Z,75.70
2022-08-17T11:17:13.343Z,74.30
2022-08-17T11:20:07.190Z,75.20
2022-08-17T11:22:58.062Z,75.50
2022-08-17T11:25:43.862Z,75.90
2022-08-17T11:28:29.099Z,76.30
2022-08-17T11:31:06.809Z,77.20
2022-08-17T11:33:36.589Z,76.70
2022-08-17T11:36:18.801Z,76.60
2022-08-17T11:39:27.230Z,78.30
2022-08-17T11:42:06.041Z,77.10
2022-08-17T11:44:56.627Z,78.40
2022-08-17T11:48:16.000Z,77.90
2022-08-17T11:51:12.963Z,78.10
2022-08-17T11:54:21.573Z,78.40
2022-08-17T11:56:49.122Z,79.90
2022-08-17T11:59:37.216Z,78.80
2022-08-17T12:02:31.754Z,77.90
2022-08-17T12:05:27.563Z,80.00
2022-08-17T12:08:12.060Z,78.50
2022-08-17T12:10:51.778Z,77.60
2022-08-17T12:13:19.677Z,78.70
2022-08-17T12:15:50.926Z,78.50
2022-08-17T12:18:28.300Z,78.70
2022-08-17T12:21:29.364Z,78.20
2022-08-17T12:24:34.222Z,81.30
2022-08-17T12:27:04.618Z,82.20
2022-08-17T12:29:35.439Z,77.80
2022-08-17T12:32:07.351Z,78.10
2022-08-17T12:34:39.608Z,78.50
2022-08-17T12:37:20.770Z,78.70
2022-08-17T12:39:58.789Z,77.90
2022-08-17T12:42:37.524Z,79.60
2022-08-17T12:45:29.703Z,78.90
2022-08-17T12:48:12.518Z,78.20
2022-08-17T12:50:44.629Z,78.50
2022-08-17T12:53:30.218Z,79.00
2022-08-17T12:56:00.498Z,78.60
2022-08-17T12:58:33.439Z,76.20
2022-08-17T13:01:16.079Z,76.10
2022-08-17T13:03:49.660Z,77.80
2022-08-17T13:06:36.792Z,75.00
2022-08-17T13:09:18.249Z,76.60
2022-08-17T13:11:52.079Z,74.00
2022-08-17T13:14:20.130Z,75.40
2022-08-17T13:16:59.889Z,73.60
2022-08-17T13:19:40.416Z,72.00
2022-08-17T13:22:12.834Z,74.40
2022-08-17T13:25:01.138Z,75.40
2022-08-17T13:27:33.036Z,72.00
2022-08-17T13:30:11.764Z,74.50
2022-08-17T13:32:46.628Z,72.20
2022-08-17T13:35:41.074Z,70.80
2022-08-17T13:38:40.651Z,71.50
2022-08-17T13:41:07.862Z,71.60
2022-08-17T13:43:49.799Z,69.90
2022-08-17T13:46:21.026Z,71.50
2022-08-17T13:49:02.110Z,72.30
2022-08-17T13:51:32.819Z,72.70
2022-08-17T13:54:02.851Z,72.00
2022-08-17T13:56:54.857Z,72.00
2022-08-17T13:59:55.011Z,73.40
2022-08-17T14:02:21.683Z,72.10
2022-08-17T14:04:49.302Z,70.90
2022-08-17T14:07:16.889Z,71.40
2022-08-17T14:09:52.402Z,71.00
2022-08-17T14:12:24.892Z,72.30
2022-08-17T14:14:52.760Z,74.10
2022-08-17T14:17:20.317Z,73.70
2022-08-17T14:19:48.239Z,73.80
2022-08-17T14:22:23.898Z,73.00
2022-08-17T14:24:51.556Z,70.90
2022-08-17T14:27:20.548Z,70.30
2022-08-17T14:29:48.380Z,71.00
2022-08-17T14:32:24.949Z,65.00
2022-08-17T14:34:52.946Z,65.30
2022-08-17T14:37:21.491Z,63.60
2022-08-17T14:39:48.860Z,65.50
2022-08-17T14:42:18.719Z,62.50
2022-08-17T14:44:45.877Z,62.40
2022-08-17T14:47:16.009Z,60.60
2022-08-17T14:49:43.875Z,59.00
2022-08-17T14:52:17.340Z,61.30
2022-08-17T14:54:45.911Z,58.10
2022-08-17T14:57:26.076Z,58.10
2022-08-17T15:00:00.467Z,60.00
2022-08-17T15:02:29.688Z,57.70
2022-08-17T15:05:02.796Z,57.30
2022-08-17T15:07:31.271Z,56.50
2022-08-17T15:10:02.709Z,56.70
2022-08-17T15:12:33.684Z,55.60
2022-08-17T15:15:04.633Z,56.70
2022-08-17T15:17:44.566Z,57.30
2022-08-17T15:20:15.977Z,57.80
2022-08-17T15:22:44.345Z,57.70
2022-08-17T15:25:12.458Z,57.80
2022-08-17T15:27:40.596Z,57.50
2022-08-17T15:30:09.608Z,58.00
2022-08-17T15:32:38.915Z,58.00
2022-08-17T15:35:08.963Z,57.70
2022-08-17T15:37:36.548Z,58.10
2022-08-17T15:40:05.716Z,56.80
2022-08-17T15:42:33.136Z,56.70
2022-08-17T15:45:09.681Z,57.50
2022-08-17T15:47:37.328Z,60.20
2022-08-17T15:50:07.343Z,61.30
2022-08-17T15:52:40.207Z,61.00
2022-08-17T15:55:11.160Z,61.80
2022-08-17T15:57:38.318Z,62.60
2022-08-17T16:00:07.695Z,61.40
2022-08-17T16:03:45.876Z,59.80
2022-08-17T16:05:25.385Z,59.00
2022-08-17T16:07:53.805Z,58.40
2022-08-17T16:10:21.915Z,57.70
2022-08-17T16:13:03.701Z,58.00
2022-08-17T16:15:31.983Z,57.50
2022-08-17T16:17:59.812Z,56.90
2022-08-17T16:20:27.371Z,57.00
2022-08-17T16:22:55.250Z,56.90
2022-08-17T16:25:52.573Z,57.40
2022-08-17T16:28:16.944Z,58.50
2022-08-17T16:30:44.595Z,58.70
2022-08-17T16:33:11.966Z,57.90
2022-08-17T16:35:39.568Z,58.90
2022-08-17T16:38:07.311Z,59.00
2022-08-17T16:40:36.343Z,59.60
2022-08-17T16:43:04.578Z,59.30
2022-08-17T16:45:40.361Z,60.50
2022-08-17T16:48:09.651Z,59.80
2022-08-17T16:50:37.283Z,60.50
2022-08-17T16:53:10.977Z,60.80
2022-08-17T16:55:38.799Z,62.10
2022-08-17T16:58:07.035Z,64.70
2022-08-17T17:00:34.568Z,66.10
2022-08-17T17:03:19.578Z,67.90
2022-08-17T17:05:58.038Z,69.30
2022-08-17T17:08:48.605Z,70.70
2022-08-17T17:11:27.485Z,71.60
2022-08-17T17:14:02.334Z,73.00
2022-08-17T17:16:29.516Z,74.10
2022-08-17T17:19:34.955Z,74.60
2022-08-17T17:22:19.148Z,75.60
2022-08-17T17:25:14.516Z,76.50
2022-08-17T17:28:00.434Z,77.50
2022-08-17T17:30:42.875Z,78.10
2022-08-17T17:33:11.972Z,78.90
2022-08-17T17:35:53.795Z,79.40
2022-08-17T17:38:34.975Z,80.00
2022-08-17T17:41:06.967Z,80.50
2022-08-17T17:43:41.370Z,81.30
2022-08-17T17:46:26.827Z,82.10
2022-08-17T17:48:55.446Z,83.10
2022-08-17T17:52:07.959Z,82.80
2022-08-17T17:54:53.503Z,83.10
2022-08-17T17:57:53.186Z,83.20
2022-08-17T18:00:39.307Z,83.70
2022-08-17T18:03:18.008Z,84.00
2022-08-17T18:06:04.088Z,84.70
2022-08-17T18:08:54.939Z,84.50
2022-08-17T18:11:34.898Z,84.70
2022-08-17T18:14:17.427Z,85.40
2022-08-17T18:16:46.578Z,85.80
2022-08-17T18:19:16.019Z,86.00
2022-08-17T18:21:49.018Z,86.40
2022-08-17T18:24:27.881Z,86.40
